Time;durP1;ratioP1;P1;durP2;ratioP2;P2;SDS_P1;SDS_P2;PMS_P1;PMS_P2;Temp;Humidity;BMP_temperature;BMP_pressure;BME280_temperature;BME280_humidity;BME280_pressure;Samples;Min_cycle;Max_cycle;Signal;HPM_P1;HPM_P2
2021/06/04 00:00:17;;;;;;;15.75;4.97;;;;;;;12.93;100.00;101021.67;1724201;80;21919;-84
2021/06/04 00:02:44;;;;;;;18.00;5.33;;;;;;;12.98;100.00;101029.00;1682073;84;21118;-85
2021/06/04 00:05:13;;;;;;;15.08;5.35;;;;;;;12.90;100.00;101029.77;1677655;84;21078;-85
2021/06/04 00:07:39;;;;;;;15.08;5.87;;;;;;;12.92;100.00;101028.98;1688208;83;21019;-79
2021/06/04 00:10:16;;;;;;;13.22;4.87;;;;;;;12.97;100.00;101018.72;1700929;83;21050;-80
2021/06/04 00:12:43;;;;;;;17.00;5.20;;;;;;;12.93;100.00;101029.78;1698865;83;21118;-86
2021/06/04 00:15:17;;;;;;;15.63;6.28;;;;;;;12.93;100.00;101030.59;1701155;83;21146;-84
2021/06/04 00:17:43;;;;;;;10.05;4.92;;;;;;;12.94;100.00;101028.70;1691965;83;21039;-82
2021/06/04 00:20:17;;;;;;;13.00;5.15;;;;;;;13.00;100.00;101030.37;1695665;83;21535;-84
2021/06/04 00:22:43;;;;;;;14.80;5.30;;;;;;;12.94;100.00;101020.58;1645156;86;21059;-81
2021/06/04 00:25:10;;;;;;;16.77;4.78;;;;;;;12.98;100.00;101027.65;1646400;86;20999;-85
2021/06/04 00:27:36;;;;;;;15.80;4.87;;;;;;;12.92;100.00;101028.98;1636828;86;21637;-81
2021/06/04 00:30:04;;;;;;;15.50;5.15;;;;;;;13.00;100.00;101024.95;1632511;86;21190;-84
2021/06/04 00:32:30;;;;;;;20.23;5.20;;;;;;;13.04;100.00;101023.87;1626008;86;21070;-81
2021/06/04 00:34:55;;;;;;;13.35;4.95;;;;;;;13.11;100.00;101025.23;1624540;86;20881;-85
2021/06/04 00:37:22;;;;;;;13.95;5.28;;;;;;;13.15;100.00;101025.00;1640844;86;21789;-85
2021/06/04 00:39:48;;;;;;;18.62;4.50;;;;;;;13.12;100.00;101028.23;1662675;82;21676;-79
2021/06/04 00:42:25;;;;;;;13.22;4.87;;;;;;;13.13;100.00;101031.21;1698624;82;20976;-83
2021/06/04 00:44:55;;;;;;;12.80;4.85;;;;;;;13.14;100.00;101023.90;1710912;82;21011;-81
2021/06/04 00:47:22;;;;;;;14.23;5.15;;;;;;;13.11;100.00;101029.84;1719667;82;21048;-80
2021/06/04 00:49:49;;;;;;;12.53;4.35;;;;;;;13.10;100.00;101029.03;1721981;82;21062;-79
2021/06/04 00:52:24;;;;;;;11.65;4.75;;;;;;;13.09;100.00;101030.67;1712595;82;21174;-84
2021/06/04 00:54:52;;;;;;;18.82;4.65;;;;;;;13.17;100.00;101035.00;1706586;82;21051;-83
2021/06/04 00:57:19;;;;;;;11.63;4.92;;;;;;;13.09;100.00;101032.02;1712362;82;21030;-84
2021/06/04 00:59:45;;;;;;;18.10;5.35;;;;;;;13.09;100.00;101029.32;1731414;81;21130;-82
2021/06/04 01:02:17;;;;;;;15.68;5.90;;;;;;;13.18;100.00;101032.59;1742998;82;22148;-86
2021/06/04 01:04:44;;;;;;;17.12;5.33;;;;;;;13.22;100.00;101033.41;1727078;81;21016;-81
2021/06/04 01:07:38;;;;;;;15.03;5.33;;;;;;;13.14;100.00;101032.83;1718737;82;21040;-82
2021/06/04 01:10:22;;;;;;;;;;;;;;;13.15;100.00;101030.95;1726893;81;21096;-84
2021/06/04 01:13:29;;;;;;;13.75;5.17;;;;;;;13.11;100.00;101034.71;1682191;83;20184;-86
2021/06/04 01:16:20;;;;;;;15.53;5.45;;;;;;;13.17;100.00;101035.00;1681866;83;21358;-85
2021/06/04 01:18:58;;;;;;;14.30;5.08;;;;;;;13.10;100.00;101035.80;1687020;81;21074;-79
2021/06/04 01:21:36;;;;;;;16.95;5.55;;;;;;;13.04;100.00;101039.57;1739519;81;21055;-85
2021/06/04 01:24:33;;;;;;;10.13;4.40;;;;;;;13.01;100.00;101038.75;1743015;81;21546;-80
2021/06/04 01:27:04;;;;;;;13.30;4.92;;;;;;;12.94;100.00;101039.00;1735387;81;21055;-81
2021/06/04 01:29:38;;;;;;;12.75;5.17;;;;;;;13.01;100.00;101039.30;1743555;81;21149;-87
2021/06/04 01:32:22;;;;;;;17.95;5.62;;;;;;;13.01;100.00;101043.35;1742155;81;21031;-84
2021/06/04 01:34:54;;;;;;;11.75;4.95;;;;;;;12.98;100.00;101041.17;1743829;81;21105;-79
2021/06/04 01:37:25;;;;;;;11.93;5.20;;;;;;;12.97;100.00;101039.02;1740081;81;21062;-79
2021/06/04 01:39:55;;;;;;;14.73;5.40;;;;;;;13.00;100.00;101045.25;1685662;84;21510;-83
2021/06/04 01:42:26;;;;;;;13.20;4.83;;;;;;;13.01;100.00;101040.10;1686730;84;21362;-80
2021/06/04 01:45:03;;;;;;;16.40;4.60;;;;;;;12.95;100.00;101043.33;1689514;84;21585;-84
2021/06/04 01:47:43;;;;;;;20.68;5.60;;;;;;;13.01;100.00;101040.10;1681856;84;21027;-83
2021/06/04 01:50:14;;;;;;;12.55;5.03;;;;;;;13.04;100.00;101049.05;1691376;84;21114;-84
2021/06/04 01:52:43;;;;;;;14.03;5.00;;;;;;;13.06;100.00;101042.83;1628939;87;21620;-84
2021/06/04 01:55:24;;;;;;;15.08;5.20;;;;;;;13.10;100.00;101048.52;1632926;86;21154;-80
2021/06/04 01:58:10;;;;;;;12.35;4.90;;;;;;;13.14;100.00;101046.91;1607732;88;21079;-83
2021/06/04 02:00:41;;;;;;;13.65;4.30;;;;;;;13.10;100.00;101049.88;1541641;92;21670;-83
2021/06/04 02:03:12;;;;;;;14.28;4.50;;;;;;;13.11;100.00;101046.89;1536141;92;21207;-83
2021/06/04 02:05:40;;;;;;;14.68;4.90;;;;;;;13.16;100.00;101048.81;1508083;94;21082;-83
2021/06/04 02:08:11;;;;;;;10.13;4.67;;;;;;;13.10;100.00;101045.27;1519959;93;21176;-81
2021/06/04 02:10:42;;;;;;;17.77;5.12;;;;;;;13.05;100.00;101048.50;1547618;92;21149;-81
2021/06/04 02:13:10;;;;;;;11.73;4.70;;;;;;;13.09;100.00;101049.61;1532486;93;21115;-84
2021/06/04 02:15:41;;;;;;;15.65;4.80;;;;;;;13.06;100.00;101044.19;1555146;91;21078;-85
2021/06/04 02:18:31;;;;;;;10.65;5.12;;;;;;;13.09;100.00;101048.26;1532780;93;21108;-83
2021/06/04 02:21:08;;;;;;;12.73;4.95;;;;;;;13.06;100.00;101046.89;1522148;92;21136;-84
2021/06/04 02:23:51;;;;;;;12.05;5.03;;;;;;;13.14;100.00;101047.71;1481694;94;21066;-83
2021/06/04 02:26:40;;;;;;;14.58;5.55;;;;;;;13.09;100.00;101050.42;1487734;95;21130;-83
2021/06/04 02:29:20;;;;;;;18.48;5.70;;;;;;;13.08;100.00;101052.02;1418376;98;21120;-81
2021/06/04 02:31:57;;;;;;;13.05;5.15;;;;;;;13.17;100.00;101045.83;1422242;98;21746;-83
2021/06/04 02:34:43;;;;;;;12.82;5.08;;;;;;;13.20;100.00;101049.89;1429439;98;21246;-79
2021/06/04 02:37:23;;;;;;;15.90;5.45;;;;;;;13.24;100.00;101050.20;1370591;102;21251;-83
2021/06/04 02:39:55;;;;;;;11.12;4.97;;;;;;;13.27;100.00;101052.41;1358454;103;21175;-84
2021/06/04 02:49:19;;;;;;;16.52;5.97;;;;;;;13.14;100.00;101057.73;1352678;102;21618;-86
2021/06/04 02:52:11;;;;;;;12.65;4.90;;;;;;;13.10;100.00;101053.39;1356171;104;21158;-84
2021/06/04 02:54:43;;;;;;;16.00;5.62;;;;;;;13.22;100.00;101054.52;1363770;100;21627;-86
2021/06/04 02:57:16;;;;;;;18.60;5.55;;;;;;;13.30;100.00;101061.34;1388335;102;21238;-80
2021/06/04 02:59:45;;;;;;;;;;;;;;;13.29;100.00;101061.86;1383839;101;21192;-84
2021/06/04 03:02:19;;;;;;;15.25;5.05;;;;;;;13.29;100.00;101059.16;1398725;101;21375;-81
2021/06/04 03:04:50;;;;;;;15.20;5.15;;;;;;;13.18;100.00;101059.65;1349978;104;21070;-85
2021/06/04 03:07:33;;;;;;;17.30;5.20;;;;;;;13.27;100.00;101057.27;1348155;104;21159;-84
2021/06/04 03:10:03;;;;;;;14.87;5.35;;;;;;;13.27;100.00;101061.88;1344518;104;21664;-84
2021/06/04 03:12:34;;;;;;;16.27;5.40;;;;;;;13.20;100.00;101066.13;1325402;104;21158;-82
2021/06/04 03:15:01;;;;;;;15.93;5.75;;;;;;;13.28;100.00;101066.20;1323293;105;21259;-83
2021/06/04 03:17:31;;;;;;;12.30;4.75;;;;;;;13.21;100.00;101069.13;1329159;106;21168;-79
2021/06/04 03:19:57;;;;;;;13.38;5.40;;;;;;;13.16;100.00;101066.41;1328231;105;21194;-84
2021/06/04 03:22:34;;;;;;;17.10;5.40;;;;;;;13.21;100.00;101070.48;1324844;108;21295;-85
2021/06/04 03:25:08;;;;;;;15.35;5.17;;;;;;;13.22;100.00;101069.94;1330846;106;21224;-85
2021/06/04 03:27:34;;;;;;;17.70;5.80;;;;;;;13.30;100.00;101077.04;1314568;107;21165;-80
2021/06/04 03:30:00;;;;;;;16.50;5.70;;;;;;;13.26;100.00;101075.12;1326570;106;21198;-85
2021/06/04 03:32:27;;;;;;;12.40;5.80;;;;;;;13.33;100.00;101079.76;1315372;108;21158;-84
2021/06/04 03:34:52;;;;;;;16.73;5.40;;;;;;;13.22;100.00;101083.47;1309853;106;21658;-87
2021/06/04 03:37:21;;;;;;;16.65;5.05;;;;;;;13.26;100.00;101081.88;1328991;104;21021;-84
2021/06/04 03:39:48;;;;;;;16.30;5.87;;;;;;;13.32;100.00;101076.76;1351692;103;21350;-85
2021/06/04 03:42:22;;;;;;;18.20;5.67;;;;;;;13.26;100.00;101079.17;1380652;100;21184;-86
2021/06/04 03:44:49;;;;;;;11.35;5.67;;;;;;;13.30;100.00;101084.35;1426499;95;21628;-80
2021/06/04 03:47:17;;;;;;;15.48;5.70;;;;;;;13.18;100.00;101078.59;1533740;92;21091;-80
2021/06/04 03:49:43;;;;;;;21.80;5.87;;;;;;;13.25;100.00;101071.60;1485139;93;21512;-84
2021/06/04 03:52:13;;;;;;;12.82;5.55;;;;;;;13.21;100.00;101079.95;1526212;92;21175;-86
2021/06/04 03:54:44;;;;;;;20.02;5.83;;;;;;;13.32;100.00;101074.05;1553717;91;21722;-80
2021/06/04 03:57:15;;;;;;;17.48;5.08;;;;;;;13.25;100.00;101068.06;1495677;94;21071;-83
2021/06/04 04:02:14;;;;;;;15.83;5.05;;;;;;;13.29;100.00;101074.04;1475660;96;21631;-82
2021/06/04 04:04:40;;;;;;;15.20;5.20;;;;;;;13.37;100.00;101070.02;1547500;91;21170;-80
2021/06/04 04:07:08;;;;;;;18.32;5.78;;;;;;;13.40;100.00;101070.29;1557367;91;21268;-87
2021/06/04 04:09:34;;;;;;;15.72;5.15;;;;;;;13.39;100.00;101065.97;1555668;91;21136;-83
2021/06/04 04:12:01;;;;;;;17.00;4.97;;;;;;;13.43;100.00;101068.95;1565050;89;21599;-84
2021/06/04 04:14:27;;;;;;;13.05;5.85;;;;;;;13.45;100.00;101066.80;1613941;86;21022;-81
2021/06/04 04:16:54;;;;;;;11.53;5.40;;;;;;;13.42;100.00;101065.97;1664147;84;21147;-84
2021/06/04 04:19:22;;;;;;;13.25;5.60;;;;;;;13.45;100.00;101062.73;1666966;85;21024;-85
2021/06/04 04:21:51;;;;;;;13.20;5.50;;;;;;;13.52;100.00;101063.82;1627748;86;21217;-83
2021/06/04 04:24:25;;;;;;;13.38;6.20;;;;;;;13.69;100.00;101063.59;1659554;84;21125;-84
2021/06/04 04:26:52;;;;;;;16.48;5.12;;;;;;;13.66;100.00;101067.64;1685044;84;21015;-81
2021/06/04 04:29:18;;;;;;;13.08;5.08;;;;;;;13.63;100.00;101066.83;1666695;84;21082;-83
2021/06/04 04:31:48;;;;;;;14.25;6.25;;;;;;;13.64;100.00;101071.95;1636239;86;21689;-81
2021/06/04 04:34:16;;;;;;;12.43;5.45;;;;;;;13.71;100.00;101076.33;1658754;86;21139;-81
2021/06/04 04:36:46;;;;;;;16.87;6.00;;;;;;;13.71;100.00;101075.78;1659728;86;21081;-83
2021/06/04 04:39:18;;;;;;;21.45;5.95;;;;;;;13.80;100.00;101074.16;1662722;84;21097;-84
2021/06/04 04:41:46;;;;;;;11.30;5.20;;;;;;;13.84;100.00;101067.66;1650697;85;21339;-84
2021/06/04 04:44:13;;;;;;;16.97;5.47;;;;;;;13.93;100.00;101072.00;1662109;84;21110;-84
2021/06/04 04:46:39;;;;;;;16.80;5.87;;;;;;;13.84;100.00;101072.53;1655140;86;21078;-84
2021/06/04 04:49:05;;;;;;;10.78;5.55;;;;;;;13.85;100.00;101073.34;1664278;84;21034;-82
2021/06/04 04:51:33;;;;;;;13.03;4.70;;;;;;;13.79;100.00;101064.94;1654899;84;21178;-82
2021/06/04 04:54:00;;;;;;;13.32;5.12;;;;;;;13.84;100.00;101066.30;1677567;84;21798;-86
2021/06/04 04:56:27;;;;;;;10.85;4.75;;;;;;;14.02;100.00;101067.66;1710226;83;20983;-82
2021/06/04 04:58:54;;;;;;;11.80;5.75;;;;;;;14.05;100.00;101072.54;1739857;79;20984;-81
2021/06/04 05:01:20;;;;;;;17.20;5.47;;;;;;;13.93;100.00;101076.88;1773298;79;21036;-85
2021/06/04 05:03:47;;;;;;;11.48;5.28;;;;;;;14.12;100.00;101073.10;1776915;79;20999;-86
2021/06/04 05:06:13;;;;;;;11.28;4.95;;;;;;;14.05;100.00;101073.34;1764858;80;21772;-84
2021/06/04 05:08:39;;;;;;;14.63;5.30;;;;;;;14.14;100.00;101074.98;1773554;80;20853;-85
2021/06/04 05:11:06;;;;;;;12.37;4.47;;;;;;;14.15;100.00;101074.42;1802531;78;21008;-80
2021/06/04 05:13:35;;;;;;;14.03;5.25;;;;;;;14.06;100.00;101079.61;1794617;79;21140;-87
2021/06/04 05:16:03;;;;;;;17.85;5.17;;;;;;;14.04;100.00;101074.45;1799500;79;21083;-82
2021/06/04 05:18:32;;;;;;;10.85;4.85;;;;;;;14.14;100.00;101087.72;1792100;79;21508;-85
2021/06/04 05:20:59;;;;;;;19.05;5.72;;;;;;;14.14;100.00;101081.75;1786067;79;21518;-81
2021/06/04 05:23:25;;;;;;;15.95;5.20;;;;;;;14.29;100.00;101090.42;1774965;78;21606;-85
2021/06/04 05:25:54;;;;;;;11.73;4.62;;;;;;;14.26;100.00;101091.77;1774073;79;21092;-82
2021/06/04 05:28:24;;;;;;;17.75;5.53;;;;;;;14.36;100.00;101095.04;1756342;80;21047;-83
2021/06/04 05:30:55;;;;;;;14.90;5.00;;;;;;;14.35;100.00;101097.46;1770163;79;21036;-84
2021/06/04 05:33:26;;;;;;;10.15;5.12;;;;;;;14.30;100.00;101099.65;1775526;78;21114;-85
2021/06/04 05:35:53;;;;;;;14.83;4.67;;;;;;;14.33;100.00;101101.01;1768070;79;21158;-86
2021/06/04 05:38:19;;;;;;;12.35;5.15;;;;;;;14.38;100.00;101105.05;1770475;80;21452;-87
2021/06/04 05:40:49;;;;;;;10.32;5.05;;;;;;;14.33;100.00;101109.14;1772691;80;21059;-82
2021/06/04 05:43:20;;;;;;;11.83;4.50;;;;;;;14.28;100.00;101101.81;1771351;80;21262;-86
2021/06/04 05:45:47;;;;;;;12.37;4.50;;;;;;;14.35;100.00;101110.20;1770479;80;21036;-84
2021/06/04 05:48:15;;;;;;;9.88;4.75;;;;;;;14.38;100.00;101107.77;1774007;80;21067;-83
2021/06/04 05:50:46;;;;;;;11.75;4.92;;;;;;;14.55;100.00;101106.16;1770158;80;21016;-84
2021/06/04 05:53:16;;;;;;;8.63;4.50;;;;;;;14.57;100.00;101100.47;1777044;80;21129;-86
2021/06/04 05:55:43;;;;;;;10.82;4.60;;;;;;;14.60;100.00;101100.73;1777395;80;21108;-81
2021/06/04 05:58:14;;;;;;;11.88;4.47;;;;;;;14.79;100.00;101102.85;1780675;78;21487;-87
2021/06/04 06:00:44;;;;;;;9.63;4.58;;;;;;;14.95;100.00;101099.82;1780061;80;21071;-84
2021/06/04 06:03:19;;;;;;;10.43;4.70;;;;;;;15.03;100.00;101103.88;1774016;80;21098;-88
2021/06/04 06:05:45;;;;;;;9.53;4.50;;;;;;;15.02;100.00;101106.86;1771073;80;21114;-84
2021/06/04 06:08:12;;;;;;;8.80;3.60;;;;;;;15.08;100.00;101109.81;1768963;80;21216;-83
2021/06/04 06:10:40;;;;;;;13.15;4.78;;;;;;;15.10;100.00;101107.65;1771105;80;21019;-86
2021/06/04 06:13:07;;;;;;;11.10;4.28;;;;;;;15.38;100.00;101100.72;1781859;78;21557;-87
2021/06/04 06:15:33;;;;;;;7.75;4.00;;;;;;;15.60;100.00;101094.91;1765044;79;21424;-87
2021/06/04 06:18:01;;;;;;;8.58;4.12;;;;;;;15.52;100.00;101106.36;1771010;80;21052;-84
2021/06/04 06:20:32;;;;;;;10.82;3.80;;;;;;;15.54;100.00;101100.92;1766824;80;21468;-88
2021/06/04 06:23:00;;;;;;;12.03;4.60;;;;;;;16.07;100.00;101098.97;1770210;80;21031;-86
2021/06/04 06:25:31;;;;;;;6.33;3.62;;;;;;;16.07;100.00;101098.97;1769500;80;21197;-85
2021/06/04 06:27:58;;;;;;;7.20;3.47;;;;;;;15.98;100.00;101106.11;1678838;84;21087;-83
2021/06/04 06:30:28;;;;;;;8.00;3.08;;;;;;;15.91;100.00;101100.97;1686049;82;21027;-84
2021/06/04 06:32:54;;;;;;;7.87;3.00;;;;;;;15.87;100.00;101110.23;1698398;82;21258;-88
2021/06/04 06:35:26;;;;;;;9.03;3.10;;;;;;;15.78;100.00;101109.22;1707012;82;21004;-85
2021/06/04 06:37:52;;;;;;;9.25;3.65;;;;;;;15.72;100.00;101112.26;1699210;82;21076;-83
2021/06/04 06:40:18;;;;;;;7.25;3.22;;;;;;;15.51;100.00;101115.61;1707781;83;21724;-87
2021/06/04 06:42:45;;;;;;;8.28;2.72;;;;;;;15.44;100.00;101122.16;1707362;82;21149;-87
2021/06/04 06:45:12;;;;;;;6.17;3.12;;;;;;;15.38;100.00;101122.45;1707990;83;21091;-81
2021/06/04 06:47:39;;;;;;;12.60;3.10;;;;;;;15.32;100.00;101120.30;1706099;82;21082;-87
2021/06/04 06:50:09;;;;;;;6.05;3.00;;;;;;;15.32;100.00;101120.30;1707362;82;21498;-88
2021/06/04 06:52:36;;;;;;;10.35;3.95;;;;;;;15.59;100.00;101123.98;1711239;82;21099;-84
2021/06/04 06:55:05;;;;;;;8.78;2.98;;;;;;;15.46;100.00;101123.23;1684741;83;21488;-89
2021/06/04 06:57:31;;;;;;;9.68;3.50;;;;;;;15.46;100.00;101123.23;1708031;82;21220;-88
2021/06/04 06:59:58;;;;;;;10.15;3.65;;;;;;;15.28;100.00;101125.22;1684176;83;21124;-87
2021/06/04 07:02:25;;;;;;;13.25;3.12;;;;;;;15.54;100.00;101130.80;1710785;82;21059;-89
2021/06/04 07:04:52;;;;;;;11.75;3.70;;;;;;;15.47;100.00;101138.98;1709120;83;21039;-87
2021/06/04 07:07:18;;;;;;;7.30;3.60;;;;;;;15.38;100.00;101136.86;1712446;82;21113;-85
2021/06/04 07:09:46;;;;;;;11.57;3.83;;;;;;;15.30;100.00;101134.72;1713136;82;21169;-88
2021/06/04 07:12:12;;;;;;;6.87;3.30;;;;;;;15.26;100.00;101134.98;1708492;82;21068;-88
2021/06/04 07:14:39;;;;;;;10.18;4.22;;;;;;;15.27;100.00;101146.14;1707372;82;20983;-84
2021/06/04 07:17:06;;;;;;;15.72;3.85;;;;;;;15.27;100.00;101140.70;1707985;82;21550;-87
2021/06/04 07:19:35;;;;;;;13.55;3.77;;;;;;;15.19;100.00;101142.63;1707951;82;21150;-82
2021/06/04 07:22:03;;;;;;;8.25;3.40;;;;;;;15.25;100.00;101145.59;1721124;81;21535;-87
2021/06/04 07:24:30;;;;;;;13.62;3.95;;;;;;;15.23;100.00;101142.34;1733230;80;20924;-86
2021/06/04 07:26:59;;;;;;;6.45;3.47;;;;;;;15.35;100.00;101147.45;1779815;80;21039;-87
2021/06/04 07:29:28;;;;;;;18.87;4.58;;;;;;;15.31;100.00;101149.91;1775158;80;21499;-87
2021/06/04 07:31:55;;;;;;;9.03;3.50;;;;;;;15.22;100.00;101148.31;1779171;80;21038;-86
2021/06/04 07:34:23;;;;;;;9.43;3.40;;;;;;;15.32;100.00;101145.29;1782222;80;21958;-85
2021/06/04 07:36:54;;;;;;;12.40;3.65;;;;;;;15.41;100.00;101146.33;1779301;80;21125;-86
2021/06/04 07:39:25;;;;;;;7.17;2.60;;;;;;;15.68;100.00;101151.41;1778447;80;21498;-88
2021/06/04 07:41:52;;;;;;;7.80;2.47;;;;;;;15.81;100.00;101132.31;1778038;79;21530;-84
2021/06/04 07:44:19;;;;;;;5.72;2.70;;;;;;;16.06;100.00;101132.66;1777792;80;21039;-86
2021/06/04 07:46:47;;;;;;;7.40;2.75;;;;;;;16.79;100.00;101127.17;1778210;79;21047;-92
2021/06/04 07:49:15;;;;;;;6.83;2.55;;;;;;;17.30;100.00;101125.77;1750027;80;21042;-86
2021/06/04 07:51:46;;;;;;;8.88;2.52;;;;;;;17.76;100.00;101128.41;1781251;80;21153;-85
2021/06/04 07:54:15;;;;;;;6.92;2.40;;;;;;;17.64;100.00;101129.66;1777345;80;21035;-87
2021/06/04 07:56:42;;;;;;;9.35;2.30;;;;;;;18.07;100.00;101132.33;1779174;80;20984;-83
2021/06/04 07:59:09;;;;;;;10.28;2.22;;;;;;;17.98;100.00;101131.95;1776104;80;21063;-87
2021/06/04 08:01:36;;;;;;;3.10;1.85;;;;;;;18.06;100.00;101125.27;1779102;80;20987;-90
2021/06/04 08:04:02;;;;;;;3.80;2.02;;;;;;;17.78;100.00;101141.23;1777166;79;21015;-88
2021/06/04 08:06:28;;;;;;;2.83;1.50;;;;;;;17.80;100.00;101137.11;1778759;80;21003;-88
2021/06/04 08:08:56;;;;;;;6.92;1.80;;;;;;;17.52;100.00;101136.65;1756375;80;21564;-84
2021/06/04 08:11:30;;;;;;;10.28;1.80;;;;;;;17.23;100.00;101142.44;1772522;80;21507;-89
2021/06/04 08:14:00;;;;;;;3.30;1.70;;;;;;;17.41;100.00;101136.80;1702578;82;21006;-87
2021/06/04 08:16:27;;;;;;;6.60;1.90;;;;;;;17.47;100.00;101136.16;1705076;83;21513;-83
2021/06/04 08:18:55;;;;;;;6.80;1.77;;;;;;;17.75;100.00;101136.34;1708387;82;21050;-87
2021/06/04 08:21:29;;;;;;;7.95;1.87;;;;;;;17.63;100.00;101133.49;1705829;82;20968;-88
2021/06/04 08:23:55;;;;;;;6.12;2.02;;;;;;;18.02;100.00;101132.41;1672940;83;22581;-87
2021/06/04 08:26:26;;;;;;;3.30;1.80;;;;;;;17.99;100.00;101125.37;1704866;82;20895;-82
2021/06/04 08:28:53;;;;;;;9.95;1.65;;;;;;;18.26;100.00;101137.75;1696906;82;21548;-87
2021/06/04 08:31:22;;;;;;;5.78;1.90;;;;;;;18.25;100.00;101133.41;1705697;83;21015;-88
2021/06/04 08:33:49;;;;;;;5.75;2.20;;;;;;;18.41;100.00;101131.22;1705315;83;21557;-85
2021/06/04 08:36:21;;;;;;;3.02;2.00;;;;;;;18.41;100.00;101120.86;1705881;82;21181;-89
2021/06/04 08:38:47;;;;;;;4.25;2.05;;;;;;;18.54;100.00;101133.19;1704294;83;21169;-88
2021/06/04 08:41:38;;;;;;;6.92;1.92;;;;;;;18.81;100.00;101113.33;1700559;82;21109;-89
2021/06/04 08:44:34;;;;;;;4.28;1.67;;;;;;;19.16;100.00;101115.11;1704421;82;21071;-84
2021/06/04 08:47:24;;;;;;;5.25;1.77;;;;;;;19.09;100.00;101123.44;1706186;82;21066;-83
2021/06/04 08:50:24;;;;;;;11.38;2.00;;;;;;;19.01;100.00;101120.33;1650044;86;21171;-90
2021/06/04 08:53:04;;;;;;;5.28;1.80;;;;;;;19.10;100.00;101128.63;1731546;82;21193;-85
2021/06/04 08:55:58;;;;;;;4.78;1.92;;;;;;;19.24;100.00;101125.33;1717809;82;21114;-88
2021/06/04 08:58:47;;;;;;;;;;;;;;;19.15;100.00;101126.33;1728371;82;21020;-88
2021/06/04 09:01:42;;;;;;;6.53;2.20;;;;;;;18.88;100.00;101129.30;1725993;82;20147;-92
2021/06/04 09:04:19;;;;;;;11.05;1.85;;;;;;;19.27;100.00;101126.64;1725313;82;21147;-88
2021/06/04 09:07:05;;;;;;;9.83;1.82;;;;;;;19.06;100.00;101120.23;1716716;82;20999;-87
2021/06/04 09:09:48;;;;;;;3.45;1.85;;;;;;;19.12;100.00;101128.30;1598516;89;20998;-91
2021/06/04 09:12:25;;;;;;;3.30;1.95;;;;;;;18.97;100.00;101137.08;1598725;89;21085;-91
2021/06/04 09:14:52;;;;;;;6.55;1.75;;;;;;;19.23;100.00;101135.18;1510384;93;21127;-83
2021/06/04 09:17:57;;;;;;;4.60;1.60;;;;;;;19.41;100.00;101135.64;1514118;92;21932;-92
2021/06/04 09:20:38;;;;;;;4.47;1.80;;;;;;;19.37;100.00;101144.75;1530960;89;21080;-84
2021/06/04 10:36:27;;;;;;;6.08;2.10;;;;;;;19.74;100.00;101106.22;1716625;81;39239;-82
2021/06/04 10:39:02;;;;;;;6.92;1.95;;;;;;;19.86;100.00;101111.14;1703004;82;21704;-81
2021/06/04 10:41:59;;;;;;;5.05;1.77;;;;;;;19.90;100.00;101107.22;1708958;82;21035;-81
2021/06/04 10:44:52;;;;;;;7.85;1.80;;;;;;;19.69;100.00;101102.23;1715067;81;21004;-79
2021/06/04 10:48:01;;;;;;;3.27;1.70;;;;;;;19.54;100.00;101108.58;1704759;83;21090;-79
2021/06/04 10:50:41;;;;;;;6.10;2.08;;;;;;;20.21;100.00;101108.66;1717203;83;21073;-78
2021/06/04 10:53:54;;;;;;;5.90;2.10;;;;;;;20.03;100.00;101103.63;1641568;86;21021;-79
2021/06/04 11:04:37;;;;;;;8.55;1.70;;;;;;;19.92;100.00;101118.11;1637903;86;21070;-80
2021/06/04 11:07:23;;;;;;;5.92;1.60;;;;;;;19.89;100.00;101117.92;1639676;86;21058;-81
2021/06/04 11:10:07;;;;;;;2.47;1.82;;;;;;;19.66;100.00;101126.09;1639725;86;21035;-80
2021/06/04 11:12:51;;;;;;;;;;;;;;;20.07;100.00;101122.40;1636713;86;21090;-79
2021/06/04 11:18:41;;;;;;;3.27;1.55;;;;;;;19.84;100.00;101130.34;1630599;86;21049;-80
2021/06/04 11:21:35;;;;;;;6.05;1.87;;;;;;;19.72;100.00;101136.36;1630865;87;21228;-81
2021/06/04 11:24:13;;;;;;;;;;;;;;;19.27;100.00;101138.94;1584748;88;21088;-80
2021/06/04 11:26:50;;;;;;;5.37;2.10;;;;;;;19.32;100.00;101132.55;1583806;89;20192;-80
2021/06/04 11:29:35;;;;;;;9.78;1.77;;;;;;;19.51;100.00;101142.24;1608624;88;21141;-80
2021/06/04 11:32:25;;;;;;;8.33;2.47;;;;;;;19.41;100.00;101138.37;1567515;90;20986;-80
2021/06/04 11:35:14;;;;;;;3.75;1.80;;;;;;;19.46;100.00;101144.27;1572551;90;21215;-80
2021/06/04 11:38:06;;;;;;;7.35;2.45;;;;;;;19.65;100.00;101142.25;1507783;94;21504;-80
2021/06/04 11:40:43;;;;;;;11.33;2.80;;;;;;;19.76;100.00;101140.08;1504716;94;21160;-80
2021/06/04 11:43:31;;;;;;;7.08;2.33;;;;;;;19.91;100.00;101143.02;1417284;99;21544;-80
2021/06/04 11:46:29;;;;;;;6.15;2.83;;;;;;;19.99;100.00;101137.38;1434992;99;22500;-80
2021/06/04 11:49:11;;;;;;;5.37;2.42;;;;;;;20.06;100.00;101143.22;1439132;99;21217;-80
2021/06/04 11:51:43;;;;;;;5.10;2.37;;;;;;;20.07;100.00;101147.03;1433806;98;21019;-80
2021/06/04 11:54:34;;;;;;;7.30;2.50;;;;;;;20.03;100.00;101143.30;1418644;98;21596;-80
2021/06/04 11:57:28;;;;;;;9.48;2.62;;;;;;;20.03;100.00;101143.84;1447340;98;21165;-80
2021/06/04 12:00:23;;;;;;;7.40;2.37;;;;;;;20.13;100.00;101144.98;1440271;98;21125;-79
2021/06/04 12:03:14;;;;;;;4.90;2.17;;;;;;;20.20;100.00;101145.34;1448320;98;21650;-79
2021/06/04 12:05:53;;;;;;;5.62;2.42;;;;;;;20.23;100.00;101146.66;1443104;97;21097;-79
2021/06/04 12:08:33;;;;;;;11.20;2.33;;;;;;;20.34;100.00;101147.45;1444215;98;21199;-79
2021/06/04 12:11:19;;;;;;;7.00;2.22;;;;;;;20.47;100.00;101147.69;1444936;96;21154;-79
2021/06/04 12:13:54;;;;;;;4.70;2.60;;;;;;;20.54;100.00;101148.91;1489218;95;21065;-79
2021/06/04 12:16:27;;;;;;;5.37;2.17;;;;;;;20.63;100.00;101150.33;1486195;96;21141;-80
2021/06/04 12:19:22;;;;;;;7.33;2.45;;;;;;;20.67;100.00;101149.93;1481884;95;21559;-79
2021/06/04 12:21:53;;;;;;;2.80;2.00;;;;;;;20.74;100.00;101148.14;1505807;94;21089;-78
2021/06/04 12:27:15;;;;;;;11.78;3.08;;;;;;;20.69;100.00;101144.95;1508550;93;21591;-80
2021/06/04 12:29:46;;;;;;;5.33;2.40;;;;;;;20.60;100.00;101150.95;1492544;94;21233;-80
2021/06/04 12:32:27;;;;;;;10.78;2.58;;;;;;;20.52;100.00;101147.03;1520073;92;21077;-81
2021/06/04 12:35:00;;;;;;;6.42;2.92;;;;;;;20.58;100.00;101146.34;1442935;98;21165;-81
2021/06/04 12:37:42;;;;;;;3.25;2.12;;;;;;;20.61;100.00;101151.99;1427254;99;21481;-81
2021/06/04 12:40:25;;;;;;;5.42;2.12;;;;;;;20.63;100.00;101151.69;1415801;100;21197;-81
2021/06/04 12:43:00;;;;;;;14.40;2.70;;;;;;;20.59;100.00;101150.15;1414123;100;21169;-81
2021/06/04 12:45:34;;;;;;;7.05;2.40;;;;;;;20.52;100.00;101142.09;1415748;100;21650;-81
2021/06/04 12:48:33;;;;;;;9.40;2.47;;;;;;;20.54;100.00;101148.10;1379697;103;21101;-80
2021/06/04 12:51:20;;;;;;;9.33;2.45;;;;;;;20.48;100.00;101144.66;1383451;102;21149;-81
2021/06/04 12:54:05;;;;;;;9.75;2.72;;;;;;;20.39;100.00;101139.13;1376633;102;21141;-80
2021/06/04 12:56:45;;;;;;;10.05;2.37;;;;;;;20.40;100.00;101146.77;1382153;102;21821;-80
2021/06/04 12:59:16;;;;;;;7.20;2.55;;;;;;;20.36;100.00;101143.86;1397047;101;21628;-81
2021/06/04 13:02:20;;;;;;;6.30;2.70;;;;;;;20.34;100.00;101143.35;1412080;100;21192;-81
2021/06/04 13:04:51;;;;;;;6.75;2.47;;;;;;;20.27;100.00;101142.99;1407379;100;21696;-80
2021/06/04 13:07:28;;;;;;;6.87;2.60;;;;;;;20.31;100.00;101140.44;1417332;99;21197;-81
2021/06/04 13:10:15;;;;;;;7.70;2.67;;;;;;;20.31;100.00;101137.12;1403524;100;21931;-80
2021/06/04 13:12:42;;;;;;;14.63;2.60;;;;;;;20.32;100.00;101140.11;1449568;96;21731;-80
2021/06/04 13:15:19;;;;;;;6.17;2.22;;;;;;;20.22;100.00;101140.38;1452598;97;21101;-80
2021/06/04 13:18:02;;;;;;;7.62;3.15;;;;;;;20.07;100.00;101132.55;1454593;97;21186;-81